Time;durP1;ratioP1;P1;durP2;ratioP2;P2;SDS_P1;SDS_P2;PMS_P1;PMS_P2;Temp;Humidity;BMP_temperature;BMP_pressure;BME280_temperature;BME280_humidity;BME280_pressure;Samples;Min_cycle;Max_cycle;Signal;HPM_P1;HPM_P2
2023/05/16 00:00:53;;;;;;;;;4.25;2.00;;;;;20.32;44.35;101549.34;4978778;28;55389;-45
2023/05/16 00:03:18;;;;;;;;;2.00;2.00;;;;;20.34;44.16;101560.63;4978814;28;45432;-45
2023/05/16 00:05:44;;;;;;;;;3.50;2.50;;;;;20.34;44.31;101563.25;4979038;28;45186;-45
2023/05/16 00:08:10;;;;;;;;;3.75;2.25;;;;;20.33;43.82;101556.31;4979014;28;45218;-45
2023/05/16 00:10:36;;;;;;;;;2.00;2.00;;;;;20.33;44.09;101563.34;4978757;28;46578;-45
2023/05/16 00:13:01;;;;;;;;;2.00;2.00;;;;;20.32;44.44;101557.25;4978848;28;45432;-47
2023/05/16 00:15:28;;;;;;;;;3.25;1.25;;;;;20.29;43.83;101552.09;4993856;28;45454;-45
2023/05/16 00:17:58;;;;;;;;;2.50;2.50;;;;;20.32;44.31;101562.50;4979216;28;45559;-46
2023/05/16 00:20:25;;;;;;;;;2.75;1.50;;;;;20.31;43.62;101555.53;4977527;28;48040;-45
2023/05/16 00:22:51;;;;;;;;;1.50;1.25;;;;;20.32;44.08;101562.50;4979278;28;45828;-50
2023/05/16 00:25:16;;;;;;;;;2.00;2.00;;;;;20.32;43.95;101564.25;4979271;28;45918;-45
2023/05/16 00:27:42;;;;;;;;;3.00;1.75;;;;;20.30;43.83;101561.69;4979138;28;45327;-46
2023/05/16 00:30:08;;;;;;;;;1.25;1.00;;;;;20.30;43.96;101556.44;4978582;28;46274;-52
2023/05/16 00:32:35;;;;;;;;;2.75;2.00;;;;;20.31;44.04;101552.00;4978680;28;45406;-45
2023/05/16 00:35:01;;;;;;;;;3.50;3.00;;;;;20.31;43.84;101557.28;4978682;28;45355;-57
2023/05/16 00:37:26;;;;;;;;;2.25;2.25;;;;;20.30;44.12;101556.44;4979110;28;45572;-46
2023/05/16 00:39:51;;;;;;;;;2.75;1.50;;;;;20.30;43.84;101552.94;4978849;28;46340;-50
2023/05/16 00:42:20;;;;;;;;;2.50;2.00;;;;;20.29;43.78;101549.47;4978645;28;45396;-50
2023/05/16 00:44:46;;;;;;;;;2.50;2.00;;;;;20.30;43.75;101552.94;4978748;28;45385;-46
2023/05/16 00:47:12;;;;;;;;;1.50;1.50;;;;;20.23;44.19;101549.72;4978826;28;45471;-47
2023/05/16 00:49:38;;;;;;;;;3.00;2.00;;;;;20.28;43.70;101547.75;4978494;28;45454;-45
2023/05/16 00:52:03;;;;;;;;;3.50;2.50;;;;;20.27;44.16;101550.47;4978309;28;45523;-45
2023/05/16 00:54:29;;;;;;;;;4.75;3.00;;;;;20.29;43.70;101553.84;4978545;28;45339;-45
2023/05/16 00:56:55;;;;;;;;;2.00;2.00;;;;;20.28;43.74;101550.38;4978631;28;45245;-47
2023/05/16 00:59:23;;;;;;;;;1.25;1.25;;;;;20.27;43.67;101556.56;4978638;28;45266;-46
2023/05/16 01:01:49;;;;;;;;;2.50;1.00;;;;;20.26;43.85;101548.75;4978570;28;45492;-51
2023/05/16 01:04:16;;;;;;;;;2.00;2.00;;;;;20.27;43.54;101555.72;4978465;28;45444;-46
2023/05/16 01:06:42;;;;;;;;;1.50;1.50;;;;;20.27;43.61;101555.72;4978688;28;45495;-46
2023/05/16 01:09:07;;;;;;;;;3.75;2.50;;;;;20.26;43.42;101559.28;4993447;28;46096;-46
2023/05/16 01:11:45;;;;;;;;;1.00;1.00;;;;;20.26;43.69;101560.13;4978157;28;45878;-45
2023/05/16 01:14:41;;;;;;;;;2.25;1.00;;;;;20.23;43.86;101555.84;4976987;28;45329;-48
2023/05/16 01:17:21;;;;;;;;;3.25;2.00;;;;;20.25;43.51;101558.41;4978282;28;45346;-45
2023/05/16 01:20:10;;;;;;;;;1.50;1.25;;;;;20.23;43.77;101554.97;4978064;28;45359;-46
2023/05/16 01:22:46;;;;;;;;;3.00;2.00;;;;;20.24;43.27;101552.28;4977882;28;45340;-49
2023/05/16 01:25:42;;;;;;;;;3.50;2.50;;;;;20.24;43.63;101549.66;4978063;28;45258;-45
2023/05/16 01:28:09;;;;;;;;;4.00;1.50;;;;;20.21;43.51;101552.41;4978208;28;45680;-44
2023/05/16 01:30:37;;;;;;;;;2.25;1.75;;;;;20.21;43.38;101560.31;4977686;28;46218;-46
2023/05/16 01:33:03;;;;;;;;;1.50;1.00;;;;;20.21;43.78;101556.84;4992968;28;46185;-45
2023/05/16 01:35:29;;;;;;;;;2.50;2.00;;;;;20.22;43.34;101558.56;4977892;28;45446;-46
2023/05/16 01:38:10;;;;;;;;;2.00;2.00;;;;;20.22;43.19;101562.03;4978403;28;45435;-45
2023/05/16 01:40:44;;;;;;;;;3.75;2.00;;;;;20.22;43.10;101551.50;4976421;28;46921;-50
2023/05/16 01:43:14;;;;;;;;;3.00;1.50;;;;;20.22;43.63;101566.44;4977745;28;45195;-45
2023/05/16 01:45:47;;;;;;;;;2.00;2.00;;;;;20.20;43.10;101557.75;4977985;28;45389;-45
2023/05/16 01:48:19;;;;;;;;;2.75;2.00;;;;;20.20;43.64;101563.03;4977967;28;45294;-45
2023/05/16 01:50:50;;;;;;;;;2.00;2.00;;;;;20.22;43.10;101569.09;4977552;28;45329;-46
2023/05/16 01:53:21;;;;;;;;;2.50;2.00;;;;;20.20;43.38;101561.22;4992342;28;45297;-47
2023/05/16 01:55:55;;;;;;;;;1.00;1.00;;;;;20.19;43.23;101564.78;4977681;28;45381;-45
2023/05/16 01:58:25;;;;;;;;;2.00;2.00;;;;;20.20;43.36;101565.66;4977913;28;45365;-46
2023/05/16 02:00:53;;;;;;;;;1.25;1.00;;;;;20.19;43.15;101577.94;4977385;28;45387;-46
2023/05/16 02:03:18;;;;;;;;;2.00;1.00;;;;;20.18;43.39;101575.38;4977393;28;45218;-48
2023/05/16 02:05:44;;;;;;;;;3.00;2.00;;;;;20.18;43.35;101570.97;4992847;28;45420;-58
2023/05/16 02:08:09;;;;;;;;;0.25;0.25;;;;;20.18;43.37;101564.84;4977566;28;45529;-47
2023/05/16 02:10:35;;;;;;;;;2.00;2.00;;;;;20.20;43.09;101578.81;4992281;28;48139;-55
2023/05/16 02:13:00;;;;;;;;;3.50;2.00;;;;;20.18;43.44;101573.59;4977361;28;45294;-53
2023/05/16 02:15:25;;;;;;;;;2.00;2.00;;;;;20.18;43.16;101578.00;4977633;28;45273;-52
2023/05/16 02:17:51;;;;;;;;;1.00;0.00;;;;;20.18;43.17;101570.97;4977532;28;45614;-47
2023/05/16 02:20:16;;;;;;;;;3.00;3.00;;;;;20.17;43.46;101566.66;4976723;28;57873;-47
2023/05/16 02:22:43;;;;;;;;;1.00;1.00;;;;;20.18;43.22;101578.00;4977161;28;45330;-49
2023/05/16 02:25:09;;;;;;;;;1.50;1.50;;;;;20.16;43.14;101570.19;4977034;28;45412;-45
2023/05/16 02:27:34;;;;;;;;;1.75;1.00;;;;;20.17;43.02;101573.66;4977385;28;45524;-45
2023/05/16 02:30:00;;;;;;;;;3.50;1.00;;;;;20.17;43.00;101571.03;4976970;28;47142;-45
2023/05/16 02:32:25;;;;;;;;;2.00;0.75;;;;;20.16;42.97;101572.81;4977341;28;45312;-45
2023/05/16 02:34:51;;;;;;;;;1.00;1.00;;;;;20.17;42.79;101571.91;4975927;28;45773;-50
2023/05/16 02:37:16;;;;;;;;;1.25;1.25;;;;;20.17;43.37;101577.16;4975713;28;45407;-47
2023/05/16 02:39:41;;;;;;;;;2.00;2.00;;;;;20.15;42.70;101573.75;4976458;28;55479;-45
2023/05/16 02:42:07;;;;;;;;;2.00;2.00;;;;;20.16;42.76;101577.22;4976908;28;45261;-49
2023/05/16 02:44:32;;;;;;;;;5.25;2.00;;;;;20.17;42.82;101581.56;4976945;28;45302;-46
2023/05/16 02:46:57;;;;;;;;;3.00;2.00;;;;;20.15;43.26;101579.00;4977529;28;45253;-46
2023/05/16 02:49:23;;;;;;;;;1.00;1.00;;;;;20.15;43.00;101580.75;4976652;28;46138;-47
2023/05/16 02:51:48;;;;;;;;;1.00;1.00;;;;;20.15;42.92;101583.41;4976703;28;45236;-45
2023/05/16 02:54:13;;;;;;;;;1.00;1.00;;;;;20.16;43.31;101585.13;4976510;28;45708;-50
2023/05/16 02:56:39;;;;;;;;;2.00;1.00;;;;;20.14;42.96;101582.56;4976808;28;45448;-52
2023/05/16 02:59:04;;;;;;;;;1.00;1.00;;;;;20.14;42.77;101586.94;4975908;28;64063;-48
2023/05/16 03:01:30;;;;;;;;;1.00;1.00;;;;;20.14;42.80;101581.69;4977040;28;45281;-45
2023/05/16 03:03:55;;;;;;;;;1.75;1.75;;;;;20.14;42.99;101589.56;4976763;28;45396;-46
2023/05/16 03:06:21;;;;;;;;;1.00;1.00;;;;;20.14;42.64;101586.94;4976833;28;45730;-48
2023/05/16 03:08:46;;;;;;;;;2.33;1.00;;;;;20.13;42.77;101590.50;4991117;28;55683;-46
2023/05/16 03:11:12;;;;;;;;;3.50;2.00;;;;;20.14;42.73;101597.47;4976545;28;45288;-47
2023/05/16 03:13:37;;;;;;;;;1.00;1.00;;;;;20.13;43.12;101595.75;4976610;28;45472;-45
2023/05/16 03:16:03;;;;;;;;;2.00;1.00;;;;;20.12;43.01;101604.59;4976864;28;45409;-57
2023/05/16 03:18:28;;;;;;;;;3.00;1.25;;;;;20.11;42.73;101592.38;4976643;28;46569;-50
2023/05/16 03:20:54;;;;;;;;;1.00;1.00;;;;;20.14;42.59;101602.75;4976904;28;45366;-49
2023/05/16 03:23:20;;;;;;;;;1.00;1.00;;;;;20.12;42.65;101594.91;4991982;28;45325;-49
2023/05/16 03:25:45;;;;;;;;;1.50;1.00;;;;;20.06;42.60;101590.75;4976656;28;45535;-51
2023/05/16 03:28:11;;;;;;;;;2.00;1.00;;;;;20.12;42.72;101608.06;4976164;28;46071;-46
2023/05/16 03:30:36;;;;;;;;;1.25;0.50;;;;;20.12;42.83;101609.88;4976290;28;45365;-45
2023/05/16 03:33:03;;;;;;;;;5.00;2.00;;;;;20.11;43.01;101609.00;4975423;28;45194;-45
2023/05/16 03:35:29;;;;;;;;;1.00;1.00;;;;;20.11;42.83;101618.69;4976646;28;45315;-46
2023/05/16 03:37:54;;;;;;;;;2.00;2.00;;;;;20.11;42.74;101624.78;4978219;28;45291;-45
2023/05/16 03:40:22;;;;;;;;;2.00;2.00;;;;;20.11;42.87;101618.69;4979745;28;45333;-52
2023/05/16 03:42:47;;;;;;;;;1.00;1.00;;;;;20.08;42.87;101615.25;4979789;28;45338;-56
2023/05/16 03:45:13;;;;;;;;;1.00;1.00;;;;;20.11;42.62;101623.94;4979908;28;45317;-59
2023/05/16 03:47:38;;;;;;;;;1.00;1.00;;;;;20.11;42.94;101632.69;4979376;28;46265;-59
2023/05/16 03:50:04;;;;;;;;;1.50;1.00;;;;;20.11;42.78;101627.41;4979332;28;45416;-54
2023/05/16 03:52:30;;;;;;;;;1.50;1.00;;;;;20.09;42.52;101631.88;4979639;28;45372;-59
2023/05/16 03:54:55;;;;;;;;;1.00;1.00;;;;;20.10;42.75;101635.38;4979068;28;53586;-59
2023/05/16 03:57:21;;;;;;;;;1.00;1.00;;;;;20.08;42.43;101636.31;4979061;28;46719;-58
2023/05/16 03:59:46;;;;;;;;;1.50;1.00;;;;;20.10;42.48;101635.38;4979314;28;45444;-59
2023/05/16 04:02:11;;;;;;;;;1.00;1.00;;;;;20.10;42.49;101640.66;4979406;28;45298;-58
2023/05/16 04:04:37;;;;;;;;;2.33;1.00;;;;;20.09;42.56;101639.78;4978569;28;60714;-55
2023/05/16 04:07:02;;;;;;;;;2.00;1.00;;;;;20.08;42.80;101641.56;4979431;28;45455;-58
2023/05/16 04:09:28;;;;;;;;;1.25;1.25;;;;;20.10;42.57;101645.91;4979151;28;45346;-45
2023/05/16 04:11:55;;;;;;;;;1.00;1.00;;;;;20.07;42.68;101642.47;4994550;28;45210;-46
2023/05/16 04:14:22;;;;;;;;;1.00;1.00;;;;;20.08;42.46;101646.81;4979356;28;45536;-45
2023/05/16 04:16:47;;;;;;;;;1.00;0.75;;;;;20.06;42.38;101646.03;4979050;28;46586;-46
2023/05/16 04:19:13;;;;;;;;;2.00;1.00;;;;;20.07;42.69;101649.50;4978900;28;45449;-49
2023/05/16 04:21:38;;;;;;;;;1.00;1.00;;;;;20.08;42.62;101652.09;4979118;28;45651;-47
2023/05/16 04:24:04;;;;;;;;;4.00;1.00;;;;;20.04;42.21;101645.22;4979494;28;45457;-54
2023/05/16 04:26:29;;;;;;;;;1.50;1.00;;;;;20.08;42.78;101659.13;4978705;28;47191;-45
2023/05/16 04:28:54;;;;;;;;;0.75;0.75;;;;;20.08;42.69;101657.34;4993920;28;45494;-46
2023/05/16 04:31:21;;;;;;;;;1.00;1.00;;;;;20.07;42.19;101650.38;4978935;28;45309;-46
2023/05/16 04:33:47;;;;;;;;;2.50;1.00;;;;;20.07;42.30;101662.66;4979037;28;45178;-45
2023/05/16 04:36:12;;;;;;;;;1.00;1.00;;;;;20.05;42.44;101654.84;4978457;28;45796;-48
2023/05/16 04:38:38;;;;;;;;;3.00;1.50;;;;;20.05;42.49;101664.53;4977347;28;45370;-58
2023/05/16 04:41:03;;;;;;;;;3.75;1.00;;;;;20.05;42.49;101662.72;4979206;28;45257;-51
2023/05/16 04:43:29;;;;;;;;;5.00;1.00;;;;;20.04;42.17;101661.00;4978934;28;45634;-51
2023/05/16 04:45:54;;;;;;;;;1.00;1.00;;;;;20.05;42.61;101661.88;4978408;28;46954;-47
2023/05/16 04:48:19;;;;;;;;;4.00;1.00;;;;;20.04;42.96;101671.53;4978377;28;45380;-52
2023/05/16 04:50:45;;;;;;;;;3.00;1.67;;;;;20.03;42.72;101671.63;4993307;28;52355;-51
2023/05/16 04:53:10;;;;;;;;;1.00;1.00;;;;;19.99;42.56;101678.78;4978454;28;45516;-49
2023/05/16 04:55:35;;;;;;;;;3.50;1.00;;;;;19.98;42.90;101681.44;4978609;28;45357;-47
2023/05/16 04:58:01;;;;;;;;;2.00;2.00;;;;;19.95;42.71;101678.97;4978360;28;45175;-52
2023/05/16 05:00:27;;;;;;;;;1.25;1.00;;;;;19.94;42.64;101683.34;4978618;28;45336;-49
2023/05/16 05:02:52;;;;;;;;;2.50;1.00;;;;;19.93;42.55;101679.88;4978562;28;45562;-47
2023/05/16 05:05:17;;;;;;;;;3.00;1.50;;;;;19.92;42.08;101685.19;4978137;28;47079;-47
2023/05/16 05:07:43;;;;;;;;;3.00;1.00;;;;;19.89;42.29;101691.44;4993293;28;45371;-57
2023/05/16 05:10:09;;;;;;;;;2.25;2.00;;;;;19.86;41.85;101683.66;4978349;28;45328;-49
2023/05/16 05:12:34;;;;;;;;;3.50;1.25;;;;;19.85;41.89;101686.31;4978746;28;45323;-52
2023/05/16 05:15:00;;;;;;;;;5.25;1.00;;;;;19.82;42.20;101691.69;4978073;28;45399;-48
2023/05/16 05:17:25;;;;;;;;;3.00;1.75;;;;;19.81;42.07;101690.84;4993018;28;45341;-47
2023/05/16 05:19:50;;;;;;;;;2.00;1.00;;;;;19.83;42.08;101690.78;4978188;28;45434;-47
2023/05/16 05:22:16;;;;;;;;;5.25;2.00;;;;;19.84;42.03;101685.47;4978313;28;45324;-50
2023/05/16 05:24:41;;;;;;;;;2.00;1.00;;;;;19.84;42.43;101687.22;4977851;28;46320;-50
2023/05/16 05:27:07;;;;;;;;;1.50;1.00;;;;;19.88;42.54;101700.22;4978174;28;45360;-49
2023/05/16 05:29:32;;;;;;;;;1.75;1.75;;;;;19.89;42.22;101694.06;4978096;28;45523;-46
2023/05/16 05:31:58;;;;;;;;;4.00;1.00;;;;;19.91;42.35;101699.25;4977974;28;45225;-48
2023/05/16 05:34:23;;;;;;;;;1.00;1.00;;;;;19.91;42.23;101701.88;4992886;28;48286;-49
2023/05/16 05:36:48;;;;;;;;;0.75;0.75;;;;;19.93;42.03;101700.06;4977668;28;45276;-58
2023/05/16 05:39:14;;;;;;;;;1.75;1.75;;;;;19.94;42.08;101701.78;4977541;28;47736;-53
2023/05/16 05:41:39;;;;;;;;;1.25;1.25;;;;;19.96;42.56;101710.47;4978342;28;45239;-53
2023/05/16 05:44:05;;;;;;;;;1.00;1.00;;;;;19.95;42.30;101700.84;4977743;28;45901;-48
2023/05/16 05:46:32;;;;;;;;;2.50;1.00;;;;;19.97;42.13;101706.91;4976365;28;45326;-47
2023/05/16 05:48:58;;;;;;;;;1.00;1.00;;;;;19.97;42.55;101709.56;4977660;28;45387;-49
2023/05/16 05:51:24;;;;;;;;;2.50;2.00;;;;;19.99;42.28;101709.47;4977967;28;45412;-48
2023/05/16 05:53:50;;;;;;;;;2.50;1.00;;;;;19.99;42.40;101709.47;4977294;28;47614;-46
2023/05/16 05:56:15;;;;;;;;;1.00;1.00;;;;;19.99;42.39;101707.72;4977522;28;45332;-45
2023/05/16 05:58:42;;;;;;;;;2.00;2.00;;;;;20.00;42.86;101712.06;4977578;28;45265;-46
2023/05/16 06:01:10;;;;;;;;;1.00;1.00;;;;;20.01;42.73;101711.13;4977203;28;45185;-46
2023/05/16 06:03:35;;;;;;;;;1.00;1.00;;;;;20.01;42.40;101715.53;4977227;28;46132;-45
2023/05/16 06:06:00;;;;;;;;;4.00;1.00;;;;;19.99;42.78;101705.09;4977422;28;45337;-45
2023/05/16 06:08:26;;;;;;;;;2.00;1.00;;;;;20.02;42.53;101710.22;4977335;28;45396;-46
2023/05/16 06:10:51;;;;;;;;;2.25;1.00;;;;;20.01;42.72;101716.38;4977610;28;45796;-46
2023/05/16 06:13:16;;;;;;;;;1.00;1.00;;;;;20.02;42.44;101715.47;4977282;28;46101;-46
2023/05/16 06:15:42;;;;;;;;;1.00;1.00;;;;;20.03;42.92;101721.63;4977277;28;45380;-48
2023/05/16 06:18:07;;;;;;;;;2.00;1.00;;;;;20.04;42.46;101726.81;4976968;28;57667;-46
2023/05/16 06:20:33;;;;;;;;;1.50;1.50;;;;;20.02;42.58;101726.00;4976256;28;45360;-53
2023/05/16 06:22:58;;;;;;;;;1.50;1.00;;;;;20.05;42.46;101727.69;4976998;28;49295;-46
2023/05/16 06:25:23;;;;;;;;;1.75;1.75;;;;;20.03;42.56;101719.81;4977245;28;45372;-57
2023/05/16 06:27:49;;;;;;;;;0.25;0.25;;;;;20.04;42.49;101724.16;4977143;28;45428;-56
2023/05/16 06:30:14;;;;;;;;;2.00;1.75;;;;;20.05;42.86;101725.88;4977380;28;45320;-45
2023/05/16 06:32:40;;;;;;;;;2.50;1.00;;;;;20.05;42.72;101718.00;4977203;28;45994;-46
2023/05/16 06:35:06;;;;;;;;;1.00;1.00;;;;;20.06;42.34;101719.72;4976978;28;45405;-48
2023/05/16 06:37:31;;;;;;;;;1.50;1.50;;;;;20.05;42.42;101728.53;4976972;28;45451;-56
2023/05/16 06:39:58;;;;;;;;;0.00;0.00;;;;;20.08;42.30;101735.44;4977024;28;45328;-55
2023/05/16 06:42:23;;;;;;;;;2.25;0.50;;;;;20.06;42.41;101729.41;4976937;28;47181;-50
2023/05/16 06:44:48;;;;;;;;;2.00;2.00;;;;;20.08;42.36;101735.44;4976988;28;45195;-55
2023/05/16 06:47:14;;;;;;;;;0.50;0.25;;;;;20.08;42.42;101733.66;4992049;28;45469;-51
2023/05/16 06:49:40;;;;;;;;;1.50;1.25;;;;;20.09;42.61;101742.41;4977331;28;45172;-56
2023/05/16 06:52:05;;;;;;;;;3.00;0.00;;;;;20.08;42.41;101733.66;4976551;28;52105;-59
2023/05/16 06:54:31;;;;;;;;;2.50;0.25;;;;;20.10;42.25;101738.03;4976585;28;45340;-59
2023/05/16 06:56:56;;;;;;;;;0.25;0.25;;;;;20.11;42.48;101745.00;4976849;28;45439;-59
2023/05/16 06:59:21;;;;;;;;;2.50;1.25;;;;;20.10;42.15;101741.50;4992190;28;45197;-53
2023/05/16 07:01:47;;;;;;;;;2.25;1.00;;;;;20.12;42.55;101749.34;4976462;28;45343;-47
2023/05/16 07:04:12;;;;;;;;;2.25;1.75;;;;;20.12;42.38;101739.66;4977454;28;45293;-47
2023/05/16 07:06:37;;;;;;;;;2.25;1.00;;;;;20.12;42.35;101742.31;4976475;28;47439;-48
2023/05/16 07:09:03;;;;;;;;;1.00;1.00;;;;;20.11;42.37;101745.84;4976815;28;45312;-49
2023/05/16 07:11:28;;;;;;;;;0.75;0.00;;;;;20.12;42.17;101741.47;4976425;28;45651;-48
2023/05/16 07:13:54;;;;;;;;;1.00;1.00;;;;;20.14;42.50;101739.59;4979298;28;45305;-51
2023/05/16 07:16:19;;;;;;;;;0.00;0.00;;;;;20.15;42.50;101746.56;4980035;28;45320;-50
2023/05/16 07:18:44;;;;;;;;;3.00;1.00;;;;;20.14;42.47;101752.75;4980489;28;45407;-47
2023/05/16 07:21:10;;;;;;;;;1.00;1.00;;;;;20.14;42.57;101752.75;4979466;28;54684;-47
2023/05/16 07:23:35;;;;;;;;;1.00;1.00;;;;;20.13;42.63;101751.03;4979930;28;45432;-52
2023/05/16 07:26:02;;;;;;;;;1.75;1.00;;;;;20.16;42.10;101748.28;4979984;28;45427;-52
2023/05/16 07:28:27;;;;;;;;;0.00;0.00;;;;;20.15;42.05;101759.75;4980129;28;45239;-47
2023/05/16 07:30:53;;;;;;;;;1.00;1.00;;;;;20.15;42.23;101760.63;4979549;28;45933;-48
2023/05/16 07:33:18;;;;;;;;;2.00;0.75;;;;;20.16;42.13;101759.69;4979704;28;45760;-47
2023/05/16 07:35:44;;;;;;;;;1.00;1.00;;;;;20.17;42.05;101773.69;4979947;28;45284;-47
2023/05/16 07:38:10;;;;;;;;;1.75;0.25;;;;;20.18;42.21;101775.41;4979905;28;45504;-48
2023/05/16 07:40:35;;;;;;;;;1.75;1.00;;;;;20.17;42.34;101763.19;4979533;28;46157;-48
2023/05/16 07:43:01;;;;;;;;;0.25;0.25;;;;;20.18;42.36;101757.84;4979472;28;47271;-47
2023/05/16 07:45:27;;;;;;;;;2.25;1.00;;;;;20.19;42.49;101761.34;4979710;28;45468;-47
2023/05/16 07:47:52;;;;;;;;;1.75;1.00;;;;;20.20;42.44;101766.53;4979740;28;45479;-46
2023/05/16 07:50:18;;;;;;;;;1.50;0.25;;;;;20.20;42.02;101768.31;4979438;28;46039;-51
2023/05/16 07:52:43;;;;;;;;;2.00;1.00;;;;;20.20;42.13;101761.28;4979518;28;45450;-47
2023/05/16 07:55:08;;;;;;;;;1.25;1.00;;;;;20.19;41.92;101762.19;4979604;28;45426;-48
2023/05/16 07:57:34;;;;;;;;;1.00;1.00;;;;;20.22;42.20;101763.88;4979571;28;45332;-49
2023/05/16 07:59:59;;;;;;;;;2.00;0.25;;;;;20.21;41.86;101762.16;4979092;28;45513;-47
2023/05/16 08:02:29;;;;;;;;;2.00;0.00;;;;;20.21;42.10;101754.25;4979238;28;45349;-46
2023/05/16 08:04:55;;;;;;;;;1.75;0.00;;;;;20.23;42.00;101765.56;4994452;28;45262;-49
2023/05/16 08:07:21;;;;;;;;;0.75;0.75;;;;;20.22;42.00;101751.53;4979489;28;45650;-50
2023/05/16 08:09:46;;;;;;;;;2.00;1.00;;;;;20.25;42.18;101766.34;4979331;28;46141;-48
2023/05/16 08:12:12;;;;;;;;;1.75;1.50;;;;;20.23;41.84;101766.44;4979045;28;45280;-46
2023/05/16 08:14:38;;;;;;;;;2.25;0.25;;;;;20.24;42.14;101760.25;4979137;28;45415;-47
2023/05/16 08:17:03;;;;;;;;;2.00;1.00;;;;;20.24;42.10;101768.16;4979133;28;45474;-49
2023/05/16 08:19:29;;;;;;;;;1.00;1.00;;;;;20.24;41.93;101762.88;4978826;28;45659;-47
2023/05/16 08:21:54;;;;;;;;;1.00;0.50;;;;;20.26;42.13;101759.34;4978878;28;45467;-47
2023/05/16 08:24:19;;;;;;;;;0.75;0.75;;;;;20.27;42.31;101759.25;4978416;28;45479;-48
2023/05/16 08:26:44;;;;;;;;;1.25;1.00;;;;;20.27;42.11;101769.78;4979542;28;45563;-47
2023/05/16 08:29:10;;;;;;;;;1.33;0.00;;;;;20.26;41.98;101760.19;4976656;28;70970;-46
2023/05/16 08:31:35;;;;;;;;;1.25;0.00;;;;;20.27;41.99;101756.63;4978689;28;45376;-51
2023/05/16 08:34:01;;;;;;;;;3.00;1.00;;;;;20.26;41.96;101756.69;4993574;28;55890;-47
2023/05/16 08:36:27;;;;;;;;;0.00;0.00;;;;;20.28;41.83;101763.59;4979021;28;45592;-46
2023/05/16 08:38:52;;;;;;;;;2.50;0.00;;;;;20.29;41.76;101765.31;4978652;28;47038;-52
2023/05/16 08:41:18;;;;;;;;;0.75;0.75;;;;;20.29;41.78;101765.31;4979098;28;45397;-48
2023/05/16 08:43:43;;;;;;;;;1.00;1.00;;;;;20.30;42.00;101771.44;4978700;28;45270;-48
2023/05/16 08:46:09;;;;;;;;;1.75;1.00;;;;;20.27;41.80;101764.53;4978997;28;45513;-51
2023/05/16 08:48:36;;;;;;;;;0.00;0.00;;;;;20.29;41.84;101774.97;4978530;28;46334;-58
2023/05/16 08:51:04;;;;;;;;;2.00;0.00;;;;;20.28;41.47;101768.88;4978597;28;45898;-50
2023/05/16 08:53:42;;;;;;;;;2.00;0.50;;;;;20.28;41.99;101763.59;4978301;28;45394;-48
2023/05/16 08:56:09;;;;;;;;;0.75;0.75;;;;;20.28;41.69;101760.97;4978826;28;45377;-54
2023/05/16 08:58:35;;;;;;;;;1.25;1.00;;;;;20.29;41.69;101767.97;4978417;28;47132;-59
2023/05/16 09:01:05;;;;;;;;;1.25;0.50;;;;;20.30;41.88;101760.91;4978422;28;46339;-59
2023/05/16 09:03:31;;;;;;;;;1.50;0.00;;;;;20.31;41.84;101763.50;4978464;28;45411;-55
2023/05/16 09:05:56;;;;;;;;;1.50;0.50;;;;;20.31;41.44;101766.13;4978714;28;45325;-56
2023/05/16 09:08:21;;;;;;;;;0.50;0.00;;;;;20.32;41.34;101770.47;4978017;28;46204;-47
2023/05/16 09:10:47;;;;;;;;;0.50;0.50;;;;;20.33;41.67;101761.66;4977951;28;59420;-50
2023/05/16 09:13:12;;;;;;;;;0.25;0.25;;;;;20.34;41.54;101763.34;4977939;28;53482;-52
2023/05/16 09:15:37;;;;;;;;;0.75;0.50;;;;;20.33;41.55;101763.44;4978824;28;45585;-48
2023/05/16 09:18:04;;;;;;;;;0.00;0.00;;;;;20.34;41.27;101768.63;4977439;28;65315;-51
2023/05/16 09:20:30;;;;;;;;;0.00;0.00;;;;;20.34;41.73;101762.50;4978069;28;45779;-54
2023/05/16 09:22:57;;;;;;;;;1.00;1.00;;;;;20.34;41.55;101768.63;4978781;28;45352;-53
2023/05/16 09:25:30;;;;;;;;;0.00;0.00;;;;;20.34;41.60;101768.63;4976951;28;45552;-49
2023/05/16 09:27:56;;;;;;;;;0.75;0.75;;;;;20.33;41.43;101774.81;4977777;28;46830;-50
2023/05/16 09:30:26;;;;;;;;;1.00;1.00;;;;;20.36;41.74;101766.78;4978350;28;45753;-47
2023/05/16 09:32:52;;;;;;;;;2.00;0.25;;;;;20.35;41.84;101770.34;4993481;28;45452;-52
2023/05/16 09:35:20;;;;;;;;;0.00;0.00;;;;;20.37;41.44;101772.94;4977462;28;45526;-54
2023/05/16 09:37:46;;;;;;;;;1.00;1.00;;;;;20.38;41.70;101772.84;4977798;28;45555;-53
2023/05/16 09:40:12;;;;;;;;;0.00;0.00;;;;;20.37;41.23;101762.41;4977731;28;45904;-51
2023/05/16 09:42:38;;;;;;;;;0.00;0.00;;;;;20.36;41.37;101758.88;4978153;28;45916;-47
2023/05/16 09:45:04;;;;;;;;;0.00;0.00;;;;;20.36;41.38;101761.53;4978057;28;45484;-48
2023/05/16 09:47:29;;;;;;;;;0.00;0.00;;;;;20.36;41.52;101766.78;4977725;28;46799;-59
2023/05/16 09:49:55;;;;;;;;;0.50;0.00;;;;;20.37;41.76;101760.59;4977727;28;45345;-49
2023/05/16 09:52:28;;;;;;;;;2.00;1.00;;;;;20.37;41.38;101765.03;4978119;28;45369;-60
2023/05/16 09:54:54;;;;;;;;;1.00;1.00;;;;;20.37;41.31;101763.25;4977989;28;45848;-49
2023/05/16 09:57:25;;;;;;;;;0.00;0.00;;;;;20.39;41.02;101760.56;4977778;28;46271;-56
2023/05/16 09:59:51;;;;;;;;;0.50;0.50;;;;;20.41;41.25;101771.03;4977825;28;45760;-52
2023/05/16 10:02:16;;;;;;;;;1.25;1.00;;;;;20.41;41.23;101776.28;4977691;28;45241;-52
2023/05/16 10:04:42;;;;;;;;;0.00;0.00;;;;;20.39;41.41;101773.72;4977824;28;45182;-59
2023/05/16 10:07:08;;;;;;;;;1.00;0.00;;;;;20.41;41.21;101771.03;4977420;28;45345;-58
2023/05/16 10:09:35;;;;;;;;;2.00;1.00;;;;;20.41;41.27;101763.97;4977402;28;45719;-56
2023/05/16 10:12:05;;;;;;;;;3.00;1.00;;;;;20.42;41.43;101767.47;4976339;28;45361;-51
2023/05/16 10:14:36;;;;;;;;;2.00;1.00;;;;;20.43;41.21;101761.28;4977756;28;45322;-51
2023/05/16 10:17:05;;;;;;;;;1.00;1.00;;;;;20.43;41.14;101748.13;4977245;28;45540;-51
2023/05/16 10:19:37;;;;;;;;;1.00;1.00;;;;;20.42;41.08;101764.84;4977291;28;45667;-59
2023/05/16 10:22:05;;;;;;;;;0.00;0.00;;;;;20.43;40.81;101758.66;4977430;28;45263;-49
2023/05/16 10:24:50;;;;;;;;;1.00;0.00;;;;;20.44;41.27;101765.66;4977578;28;45469;-56
2023/05/16 10:27:17;;;;;;;;;1.00;1.00;;;;;20.43;41.31;101761.28;4977253;28;46312;-52
2023/05/16 10:29:43;;;;;;;;;1.25;1.00;;;;;20.45;41.14;101748.94;4977213;28;45444;-52
2023/05/16 10:32:09;;;;;;;;;1.00;0.00;;;;;20.44;41.30;101757.75;4977278;28;45341;-60
2023/05/16 10:34:34;;;;;;;;;0.25;0.00;;;;;20.44;41.16;101760.38;4992540;28;45557;-47
2023/05/16 10:37:01;;;;;;;;;1.25;1.00;;;;;20.44;41.30;101752.47;4976769;28;47223;-47
2023/05/16 10:39:29;;;;;;;;;2.00;0.75;;;;;20.43;40.97;101753.41;4977221;28;45822;-49
2023/05/16 10:41:55;;;;;;;;;1.00;1.00;;;;;20.43;41.18;101762.13;4976205;28;45350;-55
2023/05/16 10:44:23;;;;;;;;;1.00;1.00;;;;;20.45;40.99;101748.94;4977248;28;45243;-51
2023/05/16 10:46:48;;;;;;;;;1.00;1.00;;;;;20.45;40.88;101751.56;4976383;28;46919;-47
2023/05/16 10:49:25;;;;;;;;;0.00;0.00;;;;;20.44;40.94;101757.75;4976791;28;45400;-47
2023/05/16 10:52:04;;;;;;;;;1.00;1.00;;;;;20.46;41.19;101753.25;4976974;28;45281;-48
2023/05/16 10:54:41;;;;;;;;;0.50;0.00;;;;;20.44;41.19;101769.13;4976944;28;45369;-47
2023/05/16 10:57:06;;;;;;;;;2.00;0.00;;;;;20.45;41.08;101754.19;4976584;28;47134;-47
2023/05/16 10:59:43;;;;;;;;;2.00;1.00;;;;;20.44;40.87;101757.75;4976660;28;45324;-50
2023/05/16 11:02:31;;;;;;;;;1.00;1.00;;;;;20.45;40.92;101756.81;4976872;28;45317;-47
2023/05/16 11:04:59;;;;;;;;;1.00;1.00;;;;;20.44;40.60;101753.31;4977234;28;45322;-46
2023/05/16 11:07:29;;;;;;;;;2.00;0.75;;;;;20.44;40.92;101737.53;4976782;28;46328;-48
2023/05/16 11:10:09;;;;;;;;;1.00;0.00;;;;;20.45;40.79;101752.41;4975962;28;45406;-47
2023/05/16 11:12:44;;;;;;;;;0.00;0.00;;;;;20.45;40.94;101739.25;4975433;28;45325;-51
2023/05/16 11:15:25;;;;;;;;;0.25;0.25;;;;;20.45;40.88;101751.56;4976707;28;45433;-48
2023/05/16 11:18:06;;;;;;;;;0.25;0.25;;;;;20.45;40.83;101748.94;4976216;28;47440;-46
2023/05/16 11:20:37;;;;;;;;;1.00;1.00;;;;;20.45;40.79;101755.03;4976415;28;45660;-51
2023/05/16 11:23:28;;;;;;;;;0.25;0.00;;;;;20.44;40.96;101753.31;4976717;28;45313;-51